sensor_id;sensor_type;location;lat;lon;timestamp;pressure;altitude;pressure_sealevel;temperature;humidity
75072;BME280;63651;55.728;38.022;2022-12-20T00:00:43;100535.50;;;11.66;40.23
75072;BME280;63651;55.728;38.022;2022-12-20T00:05:45;100551.47;;;11.69;39.56
75072;BME280;63651;55.728;38.022;2022-12-20T00:10:46;100546.94;;;11.62;39.79
75072;BME280;63651;55.728;38.022;2022-12-20T00:15:47;100534.13;;;11.70;39.44
75072;BME280;63651;55.728;38.022;2022-12-20T00:20:48;100521.38;;;11.71;40.22
75072;BME280;63651;55.728;38.022;2022-12-20T00:26:17;100522.56;;;11.68;40.45
75072;BME280;63651;55.728;38.022;2022-12-20T00:31:20;100520.34;;;11.72;39.84
75072;BME280;63651;55.728;38.022;2022-12-20T00:36:23;100526.63;;;11.72;39.82
75072;BME280;63651;55.728;38.022;2022-12-20T00:41:27;100514.69;;;11.73;39.89
75072;BME280;63651;55.728;38.022;2022-12-20T00:46:29;100505.69;;;11.73;39.76
75072;BME280;63651;55.728;38.022;2022-12-20T00:51:31;100513.31;;;11.77;40.12
75072;BME280;63651;55.728;38.022;2022-12-20T00:56:33;100487.47;;;11.73;39.85
75072;BME280;63651;55.728;38.022;2022-12-20T01:01:34;100488.44;;;11.80;39.67
75072;BME280;63651;55.728;38.022;2022-12-20T01:06:35;100465.50;;;11.75;39.86
75072;BME280;63651;55.728;38.022;2022-12-20T01:11:37;100463.44;;;11.77;39.67
75072;BME280;63651;55.728;38.022;2022-12-20T01:16:43;100454.28;;;11.78;39.69
75072;BME280;63651;55.728;38.022;2022-12-20T01:21:45;100455.97;;;11.79;39.81
75072;BME280;63651;55.728;38.022;2022-12-20T01:26:47;100468.34;;;11.81;39.84
75072;BME280;63651;55.728;38.022;2022-12-20T01:31:48;100475.22;;;11.77;40.33
75072;BME280;63651;55.728;38.022;2022-12-20T01:36:49;100486.66;;;11.88;39.84
75072;BME280;63651;55.728;38.022;2022-12-20T01:41:50;100487.69;;;11.87;39.53
75072;BME280;63651;55.728;38.022;2022-12-20T01:46:53;100440.94;;;11.83;39.33
75072;BME280;63651;55.728;38.022;2022-12-20T01:52:12;100451.44;;;11.86;39.27
75072;BME280;63651;55.728;38.022;2022-12-20T01:57:17;100455.38;;;11.83;39.85
75072;BME280;63651;55.728;38.022;2022-12-20T02:02:20;100441.19;;;11.88;38.85
75072;BME280;63651;55.728;38.022;2022-12-20T02:07:24;100434.06;;;11.87;39.62
75072;BME280;63651;55.728;38.022;2022-12-20T02:12:37;100435.31;;;11.84;40.05
75072;BME280;63651;55.728;38.022;2022-12-20T02:23:09;100433.22;;;11.87;39.71
75072;BME280;63651;55.728;38.022;2022-12-20T02:33:42;100407.44;;;11.82;39.24
75072;BME280;63651;55.728;38.022;2022-12-20T02:38:47;100403.28;;;11.87;39.08
75072;BME280;63651;55.728;38.022;2022-12-20T02:43:53;100407.44;;;11.82;39.57
75072;BME280;63651;55.728;38.022;2022-12-20T02:49:19;100406.66;;;11.89;39.41
75072;BME280;63651;55.728;38.022;2022-12-20T02:54:22;100402.44;;;11.86;39.55
75072;BME280;63651;55.728;38.022;2022-12-20T02:59:32;100366.88;;;11.73;39.84
75072;BME280;63651;55.728;38.022;2022-12-20T03:04:38;100387.78;;;11.87;39.43
75072;BME280;63651;55.728;38.022;2022-12-20T03:09:41;100393.31;;;11.94;38.93
75072;BME280;63651;55.728;38.022;2022-12-20T03:14:43;100390.59;;;11.94;39.18
75072;BME280;63651;55.728;38.022;2022-12-20T03:19:44;100373.03;;;11.96;38.78
75072;BME280;63651;55.728;38.022;2022-12-20T03:24:45;100356.44;;;11.91;39.11
75072;BME280;63651;55.728;38.022;2022-12-20T03:29:46;100352.06;;;11.97;39.03
75072;BME280;63651;55.728;38.022;2022-12-20T03:34:47;100349.75;;;11.94;39.12
75072;BME280;63651;55.728;38.022;2022-12-20T03:39:48;100342.81;;;11.91;39.54
75072;BME280;63651;55.728;38.022;2022-12-20T03:44:49;100338.22;;;11.92;39.42
75072;BME280;63651;55.728;38.022;2022-12-20T03:49:50;100328.34;;;11.91;39.38
75072;BME280;63651;55.728;38.022;2022-12-20T03:54:52;100315.97;;;11.88;39.19
75072;BME280;63651;55.728;38.022;2022-12-20T03:59:53;100314.56;;;11.92;38.74
75072;BME280;63651;55.728;38.022;2022-12-20T04:04:54;100308.84;;;11.87;39.33
75072;BME280;63651;55.728;38.022;2022-12-20T04:09:55;100302.56;;;11.87;39.24
75072;BME280;63651;55.728;38.022;2022-12-20T04:14:56;100292.72;;;11.85;39.08
75072;BME280;63651;55.728;38.022;2022-12-20T04:19:57;100289.78;;;11.87;38.58
75072;BME280;63651;55.728;38.022;2022-12-20T04:24:58;100285.38;;;11.86;38.92
75072;BME280;63651;55.728;38.022;2022-12-20T04:29:59;100274.88;;;11.83;38.76
75072;BME280;63651;55.728;38.022;2022-12-20T04:35:00;100274.69;;;11.84;38.54
75072;BME280;63651;55.728;38.022;2022-12-20T04:40:01;100286.63;;;11.83;38.37
75072;BME280;63651;55.728;38.022;2022-12-20T04:45:02;100285.59;;;11.84;39.05
75072;BME280;63651;55.728;38.022;2022-12-20T04:50:05;100282.03;;;11.84;38.41
75072;BME280;63651;55.728;38.022;2022-12-20T04:55:07;100281.56;;;11.80;38.43
75072;BME280;63651;55.728;38.022;2022-12-20T05:00:08;100263.75;;;11.78;38.82
75072;BME280;63651;55.728;38.022;2022-12-20T05:05:10;100258.94;;;11.80;38.94
75072;BME280;63651;55.728;38.022;2022-12-20T05:10:11;100261.03;;;11.78;39.04
75072;BME280;63651;55.728;38.022;2022-12-20T05:15:12;100257.91;;;11.81;38.63
75072;BME280;63651;55.728;38.022;2022-12-20T05:20:13;100247.22;;;11.79;39.20
75072;BME280;63651;55.728;38.022;2022-12-20T05:25:14;100237.38;;;11.78;39.07
75072;BME280;63651;55.728;38.022;2022-12-20T05:30:34;100219.16;;;11.79;38.96
75072;BME280;63651;55.728;38.022;2022-12-20T05:35:35;100227.13;;;11.80;38.98
75072;BME280;63651;55.728;38.022;2022-12-20T05:40:36;100222.53;;;11.81;38.76
75072;BME280;63651;55.728;38.022;2022-12-20T05:45:37;100215.59;;;11.78;38.33
75072;BME280;63651;55.728;38.022;2022-12-20T05:50:38;100217.28;;;11.79;38.40
75072;BME280;63651;55.728;38.022;2022-12-20T05:55:50;100209.13;;;11.79;38.44
75072;BME280;63651;55.728;38.022;2022-12-20T06:00:51;100209.94;;;11.80;38.63
75072;BME280;63651;55.728;38.022;2022-12-20T06:05:52;100201.78;;;11.80;38.35
75072;BME280;63651;55.728;38.022;2022-12-20T06:10:53;100206.38;;;11.79;37.57
75072;BME280;63651;55.728;38.022;2022-12-20T06:15:54;100186.69;;;11.77;37.45
75072;BME280;63651;55.728;38.022;2022-12-20T06:20:55;100178.78;;;11.82;37.63
75072;BME280;63651;55.728;38.022;2022-12-20T06:25:56;100181.09;;;11.85;37.29
75072;BME280;63651;55.728;38.022;2022-12-20T06:30:58;100177.78;;;11.90;37.23
75072;BME280;63651;55.728;38.022;2022-12-20T06:35:59;100176.09;;;11.89;37.48
75072;BME280;63651;55.728;38.022;2022-12-20T06:41:00;100161.25;;;11.92;37.46
75072;BME280;63651;55.728;38.022;2022-12-20T06:46:01;100170.91;;;11.94;37.03
75072;BME280;63651;55.728;38.022;2022-12-20T06:51:02;100162.28;;;11.91;36.84
75072;BME280;63651;55.728;38.022;2022-12-20T06:56:03;100158.13;;;11.95;36.57
75072;BME280;63651;55.728;38.022;2022-12-20T07:01:04;100152.69;;;11.95;36.40
75072;BME280;63651;55.728;38.022;2022-12-20T07:06:05;100143.25;;;11.91;36.82
75072;BME280;63651;55.728;38.022;2022-12-20T07:11:07;100127.75;;;11.91;36.31
75072;BME280;63651;55.728;38.022;2022-12-20T07:16:08;100120.66;;;11.97;36.21
75072;BME280;63651;55.728;38.022;2022-12-20T07:21:09;100112.09;;;12.00;36.21
75072;BME280;63651;55.728;38.022;2022-12-20T07:26:11;100099.13;;;12.02;36.51
75072;BME280;63651;55.728;38.022;2022-12-20T07:31:12;100101.63;;;12.03;35.80
75072;BME280;63651;55.728;38.022;2022-12-20T07:36:14;100066.91;;;12.12;36.14
75072;BME280;63651;55.728;38.022;2022-12-20T07:41:18;100040.31;;;12.14;35.99
75072;BME280;63651;55.728;38.022;2022-12-20T07:46:19;100038.63;;;12.13;35.92
75072;BME280;63651;55.728;38.022;2022-12-20T07:51:29;100023.13;;;12.13;36.24
75072;BME280;63651;55.728;38.022;2022-12-20T07:56:33;100015.41;;;12.24;36.06
75072;BME280;63651;55.728;38.022;2022-12-20T08:01:36;100009.75;;;12.25;35.96
75072;BME280;63651;55.728;38.022;2022-12-20T08:06:38;99996.06;;;13.32;39.55
75072;BME280;63651;55.728;38.022;2022-12-20T08:11:44;99987.00;;;12.72;38.31
75072;BME280;63651;55.728;38.022;2022-12-20T08:16:46;99995.81;;;12.88;37.83
75072;BME280;63651;55.728;38.022;2022-12-20T08:21:47;99992.88;;;12.76;36.30
75072;BME280;63651;55.728;38.022;2022-12-20T08:26:48;99986.78;;;12.67;35.62
75072;BME280;63651;55.728;38.022;2022-12-20T08:31:50;99975.47;;;12.57;35.54
75072;BME280;63651;55.728;38.022;2022-12-20T08:36:52;99959.09;;;12.50;35.48
75072;BME280;63651;55.728;38.022;2022-12-20T08:41:53;99957.22;;;12.44;35.20
75072;BME280;63651;55.728;38.022;2022-12-20T08:46:54;99962.88;;;12.43;35.25
75072;BME280;63651;55.728;38.022;2022-12-20T08:51:55;99944.84;;;12.42;35.18
75072;BME280;63651;55.728;38.022;2022-12-20T08:56:56;99938.34;;;12.36;35.54
75072;BME280;63651;55.728;38.022;2022-12-20T09:01:57;99923.25;;;12.40;35.06
75072;BME280;63651;55.728;38.022;2022-12-20T09:06:58;99913.59;;;12.38;35.43
75072;BME280;63651;55.728;38.022;2022-12-20T09:11:59;99892.44;;;12.46;35.24
75072;BME280;63651;55.728;38.022;2022-12-20T09:17:00;99887.41;;;12.43;35.55
75072;BME280;63651;55.728;38.022;2022-12-20T09:22:01;99871.91;;;12.44;35.31
75072;BME280;63651;55.728;38.022;2022-12-20T09:27:02;99866.66;;;12.56;35.12
75072;BME280;63651;55.728;38.022;2022-12-20T09:32:03;99854.03;;;12.88;35.64
75072;BME280;63651;55.728;38.022;2022-12-20T09:37:04;99829.09;;;12.77;34.72
75072;BME280;63651;55.728;38.022;2022-12-20T09:42:06;99827.66;;;12.68;33.30
75072;BME280;63651;55.728;38.022;2022-12-20T09:47:18;99814.06;;;12.55;33.29
75072;BME280;63651;55.728;38.022;2022-12-20T09:53:20;99819.06;;;12.58;33.19
75072;BME280;63651;55.728;38.022;2022-12-20T10:03:03;99797.50;;;12.50;32.72
75072;BME280;63651;55.728;38.022;2022-12-20T10:08:50;99794.34;;;12.53;33.14
75072;BME280;63651;55.728;38.022;2022-12-20T10:24:17;99752.00;;;13.60;38.94
75072;BME280;63651;55.728;38.022;2022-12-20T10:29:19;99737.84;;;12.93;43.85
75072;BME280;63651;55.728;38.022;2022-12-20T10:34:22;99722.66;;;12.59;44.94
75072;BME280;63651;55.728;38.022;2022-12-20T10:39:39;99716.00;;;12.42;44.65
75072;BME280;63651;55.728;38.022;2022-12-20T10:44:42;99702.22;;;12.24;45.82
75072;BME280;63651;55.728;38.022;2022-12-20T10:49:44;99696.78;;;12.10;46.11
75072;BME280;63651;55.728;38.022;2022-12-20T10:54:45;99689.88;;;12.01;47.04
75072;BME280;63651;55.728;38.022;2022-12-20T10:59:49;99681.72;;;11.88;46.98
75072;BME280;63651;55.728;38.022;2022-12-20T11:10:19;99696.78;;;11.71;48.22
75072;BME280;63651;55.728;38.022;2022-12-20T11:15:26;99680.84;;;11.54;48.87
75072;BME280;63651;55.728;38.022;2022-12-20T11:26:05;99668.25;;;11.34;50.44
75072;BME280;63651;55.728;38.022;2022-12-20T11:41:52;99636.84;;;10.98;50.46
75072;BME280;63651;55.728;38.022;2022-12-20T11:47:26;99658.59;;;11.05;51.40
75072;BME280;63651;55.728;38.022;2022-12-20T11:52:40;99648.56;;;10.99;50.82
75072;BME280;63651;55.728;38.022;2022-12-20T11:58:00;99652.28;;;10.84;52.17
75072;BME280;63651;55.728;38.022;2022-12-20T12:03:11;99655.19;;;10.76;51.71
75072;BME280;63651;55.728;38.022;2022-12-20T12:08:22;99651.22;;;10.79;51.48
75072;BME280;63651;55.728;38.022;2022-12-20T12:13:27;99636.97;;;10.64;51.91
75072;BME280;63651;55.728;38.022;2022-12-20T12:18:32;99628.78;;;10.57;53.68
75072;BME280;63651;55.728;38.022;2022-12-20T12:23:48;99634.41;;;10.55;52.98
75072;BME280;63651;55.728;38.022;2022-12-20T12:29:03;99607.66;;;10.46;53.85
75072;BME280;63651;55.728;38.022;2022-12-20T12:34:28;99623.13;;;10.52;54.28
75072;BME280;63651;55.728;38.022;2022-12-20T12:39:59;99622.25;;;10.45;52.57
75072;BME280;63651;55.728;38.022;2022-12-20T12:45:27;99629.28;;;10.33;54.42
75072;BME280;63651;55.728;38.022;2022-12-20T12:50:32;99616.66;;;10.18;52.83
75072;BME280;63651;55.728;38.022;2022-12-20T12:55:43;99626.75;;;10.24;53.15
75072;BME280;63651;55.728;38.022;2022-12-20T13:11:34;99623.50;;;10.08;54.10
75072;BME280;63651;55.728;38.022;2022-12-20T13:16:36;99620.13;;;10.06;53.32
75072;BME280;63651;55.728;38.022;2022-12-20T13:21:41;99615.94;;;10.03;53.88
75072;BME280;63651;55.728;38.022;2022-12-20T13:26:51;99625.94;;;9.96;53.26
75072;BME280;63651;55.728;38.022;2022-12-20T13:31:52;99621.13;;;9.98;53.04
75072;BME280;63651;55.728;38.022;2022-12-20T13:36:57;99626.91;;;9.88;53.16
75072;BME280;63651;55.728;38.022;2022-12-20T13:42:26;99622.78;;;9.92;53.26
75072;BME280;63651;55.728;38.022;2022-12-20T13:47:33;99623.38;;;9.88;53.04
75072;BME280;63651;55.728;38.022;2022-12-20T13:52:39;99612.28;;;9.83;51.09
75072;BME280;63651;55.728;38.022;2022-12-20T13:57:44;99618.75;;;9.82;52.42
75072;BME280;63651;55.728;38.022;2022-12-20T14:02:45;99623.38;;;9.88;51.79
75072;BME280;63651;55.728;38.022;2022-12-20T14:07:51;99625.25;;;9.87;52.55
75072;BME280;63651;55.728;38.022;2022-12-20T14:12:56;99628.13;;;9.79;53.77
75072;BME280;63651;55.728;38.022;2022-12-20T14:18:05;99600.16;;;9.79;51.52
75072;BME280;63651;55.728;38.022;2022-12-20T14:23:13;99610.00;;;9.86;52.40
75072;BME280;63651;55.728;38.022;2022-12-20T14:33:40;99609.13;;;9.79;52.79
75072;BME280;63651;55.728;38.022;2022-12-20T14:38:46;99611.16;;;9.71;52.12
75072;BME280;63651;55.728;38.022;2022-12-20T14:43:54;99604.28;;;9.75;51.04
75072;BME280;63651;55.728;38.022;2022-12-20T14:49:31;99614.06;;;9.69;50.48
75072;BME280;63651;55.728;38.022;2022-12-20T14:54:34;99610.53;;;9.69;50.88
75072;BME280;63651;55.728;38.022;2022-12-20T15:00:53;99601.16;;;9.71;51.08
75072;BME280;63651;55.728;38.022;2022-12-20T15:10:40;99614.31;;;9.74;49.95
75072;BME280;63651;55.728;38.022;2022-12-20T15:15:42;99609.91;;;9.73;49.89
75072;BME280;63651;55.728;38.022;2022-12-20T15:20:45;99614.72;;;9.71;49.74
75072;BME280;63651;55.728;38.022;2022-12-20T15:25:48;99626.00;;;9.75;49.09
75072;BME280;63651;55.728;38.022;2022-12-20T15:30:50;99630.16;;;9.71;49.13
75072;BME280;63651;55.728;38.022;2022-12-20T15:35:52;99626.75;;;9.62;49.76
75072;BME280;63651;55.728;38.022;2022-12-20T15:40:55;99625.06;;;9.61;49.57
75072;BME280;63651;55.728;38.022;2022-12-20T15:46:00;99612.94;;;9.57;48.91
75072;BME280;63651;55.728;38.022;2022-12-20T16:35:58;99595.25;;;11.11;44.08
75072;BME280;63651;55.728;38.022;2022-12-20T16:41:16;99596.09;;;11.11;45.34
75072;BME280;63651;55.728;38.022;2022-12-20T16:46:19;99583.75;;;11.15;44.37
75072;BME280;63651;55.728;38.022;2022-12-20T16:51:24;99598.81;;;11.18;45.26
75072;BME280;63651;55.728;38.022;2022-12-20T16:56:26;99608.22;;;11.29;44.68
75072;BME280;63651;55.728;38.022;2022-12-20T17:01:30;99602.38;;;11.32;44.04
75072;BME280;63651;55.728;38.022;2022-12-20T17:06:32;99608.44;;;11.34;44.48
75072;BME280;63651;55.728;38.022;2022-12-20T17:11:34;99615.97;;;11.38;44.04
75072;BME280;63651;55.728;38.022;2022-12-20T17:16:35;99600.69;;;11.37;43.71
75072;BME280;63651;55.728;38.022;2022-12-20T17:21:40;99610.31;;;11.40;43.83
75072;BME280;63651;55.728;38.022;2022-12-20T17:26:42;99615.34;;;11.49;44.09
75072;BME280;63651;55.728;38.022;2022-12-20T17:31:44;99609.47;;;11.46;43.80
75072;BME280;63651;55.728;38.022;2022-12-20T17:36:47;99623.50;;;11.56;43.43
75072;BME280;63651;55.728;38.022;2022-12-20T17:41:49;99610.09;;;11.54;44.02
75072;BME280;63651;55.728;38.022;2022-12-20T17:46:53;99608.22;;;11.55;43.18
75072;BME280;63651;55.728;38.022;2022-12-20T17:51:54;99617.84;;;11.64;43.88
75072;BME280;63651;55.728;38.022;2022-12-20T17:56:56;99606.53;;;11.67;43.30
75072;BME280;63651;55.728;38.022;2022-12-20T18:01:57;99601.97;;;11.74;43.01
75072;BME280;63651;55.728;38.022;2022-12-20T18:06:58;99607.59;;;11.73;43.10
75072;BME280;63651;55.728;38.022;2022-12-20T18:12:00;99612.22;;;11.72;44.10
75072;BME280;63651;55.728;38.022;2022-12-20T18:17:01;99616.41;;;11.75;43.05
75072;BME280;63651;55.728;38.022;2022-12-20T18:22:02;99599.47;;;11.79;42.93
75072;BME280;63651;55.728;38.022;2022-12-20T18:27:04;99592.13;;;11.87;44.68
75072;BME280;63651;55.728;38.022;2022-12-20T18:32:05;99594.00;;;11.86;44.16
75072;BME280;63651;55.728;38.022;2022-12-20T18:37:06;99603.63;;;11.89;43.66
75072;BME280;63651;55.728;38.022;2022-12-20T18:42:07;99602.59;;;11.83;41.76
75072;BME280;63651;55.728;38.022;2022-12-20T18:47:09;99601.97;;;11.88;42.60
75072;BME280;63651;55.728;38.022;2022-12-20T18:52:10;99603.84;;;11.87;41.82
75072;BME280;63651;55.728;38.022;2022-12-20T18:57:11;99600.50;;;11.92;41.93
75072;BME280;63651;55.728;38.022;2022-12-20T19:02:12;99606.78;;;11.92;41.56
75072;BME280;63651;55.728;38.022;2022-12-20T19:07:14;99595.03;;;11.92;41.68
75072;BME280;63651;55.728;38.022;2022-12-20T19:12:15;99595.44;;;11.95;41.62
75072;BME280;63651;55.728;38.022;2022-12-20T19:17:17;99587.72;;;11.92;41.09
75072;BME280;63651;55.728;38.022;2022-12-20T19:22:18;99601.94;;;12.01;40.89
75072;BME280;63651;55.728;38.022;2022-12-20T19:27:19;99589.59;;;11.98;40.78
75072;BME280;63651;55.728;38.022;2022-12-20T19:32:20;99601.09;;;12.00;41.65
75072;BME280;63651;55.728;38.022;2022-12-20T19:37:21;99607.38;;;12.01;39.87
75072;BME280;63651;55.728;38.022;2022-12-20T19:42:22;99600.66;;;12.03;40.08
75072;BME280;63651;55.728;38.022;2022-12-20T19:47:23;99601.47;;;12.10;40.16
75072;BME280;63651;55.728;38.022;2022-12-20T19:52:27;99600.25;;;12.06;39.90
75072;BME280;63651;55.728;38.022;2022-12-20T19:57:28;99599.81;;;12.09;40.06
75072;BME280;63651;55.728;38.022;2022-12-20T20:02:29;99599.81;;;12.09;39.58
75072;BME280;63651;55.728;38.022;2022-12-20T20:07:30;99591.22;;;12.12;39.42
75072;BME280;63651;55.728;38.022;2022-12-20T20:12:31;99591.63;;;12.16;38.92
75072;BME280;63651;55.728;38.022;2022-12-20T20:17:32;99593.28;;;12.17;39.13
75072;BME280;63651;55.728;38.022;2022-12-20T20:22:33;99603.34;;;12.16;38.85
75072;BME280;63651;55.728;38.022;2022-12-20T20:27:34;99609.63;;;12.17;39.02
75072;BME280;63651;55.728;38.022;2022-12-20T20:32:35;99617.16;;;12.22;39.02
75072;BME280;63651;55.728;38.022;2022-12-20T20:37:36;99623.06;;;12.12;38.44
75072;BME280;63651;55.728;38.022;2022-12-20T20:42:37;99626.41;;;12.14;38.63
75072;BME280;63651;55.728;38.022;2022-12-20T20:47:38;99619.06;;;12.14;38.34
75072;BME280;63651;55.728;38.022;2022-12-20T20:52:39;99624.72;;;12.13;38.45
75072;BME280;63651;55.728;38.022;2022-12-20T20:57:40;99627.00;;;12.23;38.27
75072;BME280;63651;55.728;38.022;2022-12-20T21:02:41;99628.25;;;12.20;38.35
75072;BME280;63651;55.728;38.022;2022-12-20T21:07:43;99628.47;;;12.25;38.01
75072;BME280;63651;55.728;38.022;2022-12-20T21:12:45;99621.34;;;12.17;37.79
75072;BME280;63651;55.728;38.022;2022-12-20T21:17:46;99624.28;;;12.16;38.24
75072;BME280;63651;55.728;38.022;2022-12-20T21:22:47;99630.78;;;12.22;37.84
75072;BME280;63651;55.728;38.022;2022-12-20T21:27:48;99639.19;;;12.13;38.25
75072;BME280;63651;55.728;38.022;2022-12-20T21:32:50;99641.03;;;12.20;37.56
75072;BME280;63651;55.728;38.022;2022-12-20T21:37:51;99629.09;;;12.21;37.29
75072;BME280;63651;55.728;38.022;2022-12-20T21:42:53;99627.22;;;12.21;37.52
75072;BME280;63651;55.728;38.022;2022-12-20T21:47:54;99625.75;;;12.18;37.58
75072;BME280;63651;55.728;38.022;2022-12-20T21:53:13;99621.78;;;12.21;37.16
75072;BME280;63651;55.728;38.022;2022-12-20T21:58:14;99635.56;;;12.26;37.42
75072;BME280;63651;55.728;38.022;2022-12-20T22:03:15;99625.31;;;12.22;37.03
75072;BME280;63651;55.728;38.022;2022-12-20T22:08:17;99626.38;;;12.21;36.90
75072;BME280;63651;55.728;38.022;2022-12-20T22:13:18;99628.66;;;12.24;36.55
75072;BME280;63651;55.728;38.022;2022-12-20T22:18:20;99629.72;;;12.23;36.71
75072;BME280;63651;55.728;38.022;2022-12-20T22:23:21;99638.53;;;12.25;36.58
75072;BME280;63651;55.728;38.022;2022-12-20T22:28:22;99630.56;;;12.23;36.69
75072;BME280;63651;55.728;38.022;2022-12-20T22:33:23;99616.91;;;12.30;36.35
75072;BME280;63651;55.728;38.022;2022-12-20T22:38:24;99619.44;;;12.25;36.62
75072;BME280;63651;55.728;38.022;2022-12-20T22:43:25;99625.09;;;12.30;36.31
75072;BME280;63651;55.728;38.022;2022-12-20T22:48:26;99623.22;;;12.24;36.81
75072;BME280;63651;55.728;38.022;2022-12-20T22:53:27;99617.53;;;12.32;36.51
75072;BME280;63651;55.728;38.022;2022-12-20T22:58:29;99612.09;;;12.32;36.53
75072;BME280;63651;55.728;38.022;2022-12-20T23:03:31;99614.38;;;12.35;36.58
75072;BME280;63651;55.728;38.022;2022-12-20T23:08:34;99609.59;;;12.30;36.43
75072;BME280;63651;55.728;38.022;2022-12-20T23:13:37;99604.34;;;12.35;36.74
75072;BME280;63651;55.728;38.022;2022-12-20T23:18:59;99594.47;;;12.34;36.57
75072;BME280;63651;55.728;38.022;2022-12-20T23:24:00;99593.00;;;12.38;36.82
75072;BME280;63651;55.728;38.022;2022-12-20T23:29:02;99587.75;;;12.43;36.60
75072;BME280;63651;55.728;38.022;2022-12-20T23:34:04;99594.69;;;12.39;36.95
75072;BME280;63651;55.728;38.022;2022-12-20T23:39:05;99592.16;;;12.38;37.18
75072;BME280;63651;55.728;38.022;2022-12-20T23:44:07;99597.19;;;12.41;37.01
75072;BME280;63651;55.728;38.022;2022-12-20T23:49:08;99604.91;;;12.44;37.10
75072;BME280;63651;55.728;38.022;2022-12-20T23:54:09;99596.97;;;12.42;36.91
75072;BME280;63651;55.728;38.022;2022-12-20T23:59:10;99592.34;;;12.43;36.85
